sensor_id;sensor_type;location;lat;lon;timestamp;pressure;altitude;pressure_sealevel;temperature;humidity
13050;BME280;6591;51.446;5.404;2023-01-27T00:01:07;102133.94;;;12.37;49.62
13050;BME280;6591;51.446;5.404;2023-01-27T00:03:34;102130.38;;;12.37;49.76
13050;BME280;6591;51.446;5.404;2023-01-27T00:06:01;102135.72;;;12.37;49.62
13050;BME280;6591;51.446;5.404;2023-01-27T00:08:30;102125.13;;;12.35;49.65
13050;BME280;6591;51.446;5.404;2023-01-27T00:10:58;102126.94;;;12.35;49.55
13050;BME280;6591;51.446;5.404;2023-01-27T00:13:44;102119.94;;;12.30;49.82
13050;BME280;6591;51.446;5.404;2023-01-27T00:16:11;102124.38;;;12.30;49.56
13050;BME280;6591;51.446;5.404;2023-01-27T00:18:38;102122.66;;;12.29;49.74
13050;BME280;6591;51.446;5.404;2023-01-27T00:21:05;102120.91;;;12.28;49.66
13050;BME280;6591;51.446;5.404;2023-01-27T00:23:51;102117.50;;;12.24;49.75
13050;BME280;6591;51.446;5.404;2023-01-27T00:26:37;102118.44;;;12.22;49.52
13050;BME280;6591;51.446;5.404;2023-01-27T00:29:04;102124.69;;;12.21;49.56
13050;BME280;6591;51.446;5.404;2023-01-27T00:31:31;102120.34;;;12.18;49.73
13050;BME280;6591;51.446;5.404;2023-01-27T00:34:17;102119.53;;;12.15;49.70
13050;BME280;6591;51.446;5.404;2023-01-27T00:41:16;102113.94;;;11.96;49.95
13050;BME280;6591;51.446;5.404;2023-01-27T00:43:51;102121.88;;;11.98;49.72
13050;BME280;6591;51.446;5.404;2023-01-27T00:46:22;102123.69;;;11.96;49.74
13050;BME280;6591;51.446;5.404;2023-01-27T00:48:51;102128.06;;;11.98;49.97
13050;BME280;6591;51.446;5.404;2023-01-27T00:51:19;102125.44;;;11.97;50.17
13050;BME280;6591;51.446;5.404;2023-01-27T00:53:47;102121.88;;;11.98;50.20
13050;BME280;6591;51.446;5.404;2023-01-27T00:56:16;102118.34;;;11.97;49.67
13050;BME280;6591;51.446;5.404;2023-01-27T00:58:43;102121.03;;;11.96;49.96
13050;BME280;6591;51.446;5.404;2023-01-27T01:01:13;102127.22;;;11.96;49.65
13050;BME280;6591;51.446;5.404;2023-01-27T01:03:42;102137.88;;;11.96;49.79
13050;BME280;6591;51.446;5.404;2023-01-27T01:06:12;102128.19;;;11.94;50.01
13050;BME280;6591;51.446;5.404;2023-01-27T01:08:40;102125.53;;;11.94;50.21
13050;BME280;6591;51.446;5.404;2023-01-27T01:11:11;102125.59;;;11.92;50.21
13050;BME280;6591;51.446;5.404;2023-01-27T01:13:40;102138.03;;;11.92;50.11
13050;BME280;6591;51.446;5.404;2023-01-27T01:16:21;102139.94;;;11.86;49.98
13050;BME280;6591;51.446;5.404;2023-01-27T01:18:48;102140.81;;;11.87;50.05
13050;BME280;6591;51.446;5.404;2023-01-27T01:21:16;102134.69;;;11.83;50.42
13050;BME280;6591;51.446;5.404;2023-01-27T01:23:44;102148.06;;;11.82;49.97
13050;BME280;6591;51.446;5.404;2023-01-27T01:26:14;102143.69;;;11.79;49.77
13050;BME280;6591;51.446;5.404;2023-01-27T01:28:43;102141.94;;;11.78;50.24
13050;BME280;6591;51.446;5.404;2023-01-27T01:31:15;102138.41;;;11.78;50.37
13050;BME280;6591;51.446;5.404;2023-01-27T01:33:42;102145.56;;;11.77;50.24
13050;BME280;6591;51.446;5.404;2023-01-27T01:36:13;102143.00;;;11.73;50.23
13050;BME280;6591;51.446;5.404;2023-01-27T01:38:41;102152.72;;;11.72;50.55
13050;BME280;6591;51.446;5.404;2023-01-27T01:41:15;102148.41;;;11.68;50.84
13050;BME280;6591;51.446;5.404;2023-01-27T01:43:43;102153.81;;;11.67;50.20
13050;BME280;6591;51.446;5.404;2023-01-27T01:46:12;102151.19;;;11.65;50.59
13050;BME280;6591;51.446;5.404;2023-01-27T01:48:58;102149.53;;;11.61;50.55
13050;BME280;6591;51.446;5.404;2023-01-27T01:51:34;102156.56;;;11.62;50.56
13050;BME280;6591;51.446;5.404;2023-01-27T01:54:12;102153.09;;;11.60;50.44
13050;BME280;6591;51.446;5.404;2023-01-27T01:56:47;102156.66;;;11.59;50.32
13050;BME280;6591;51.446;5.404;2023-01-27T01:59:45;102163.81;;;11.57;50.48
13050;BME280;6591;51.446;5.404;2023-01-27T02:02:20;102161.09;;;11.60;50.62
13050;BME280;6591;51.446;5.404;2023-01-27T02:05:03;102163.75;;;11.60;50.52
13050;BME280;6591;51.446;5.404;2023-01-27T02:07:42;102168.16;;;11.61;50.22
13050;BME280;6591;51.446;5.404;2023-01-27T02:10:11;102161.84;;;11.64;50.70
13050;BME280;6591;51.446;5.404;2023-01-27T02:12:39;102161.84;;;11.64;50.58
13050;BME280;6591;51.446;5.404;2023-01-27T02:15:08;102165.41;;;11.64;50.30
13050;BME280;6591;51.446;5.404;2023-01-27T02:17:36;102155.66;;;11.63;50.13
13050;BME280;6591;51.446;5.404;2023-01-27T02:26:31;102164.81;;;11.53;50.54
13050;BME280;6591;51.446;5.404;2023-01-27T02:29:06;102171.91;;;11.53;49.96
13050;BME280;6591;51.446;5.404;2023-01-27T02:31:34;102176.31;;;11.55;50.49
13050;BME280;6591;51.446;5.404;2023-01-27T02:34:16;102162.19;;;11.52;50.09
13050;BME280;6591;51.446;5.404;2023-01-27T02:36:52;102179.09;;;11.51;50.40
13050;BME280;6591;51.446;5.404;2023-01-27T02:39:25;102184.41;;;11.51;50.44
13050;BME280;6591;51.446;5.404;2023-01-27T02:41:55;102192.44;;;11.49;50.09
13050;BME280;6591;51.446;5.404;2023-01-27T02:44:25;102186.25;;;11.47;50.00
13050;BME280;6591;51.446;5.404;2023-01-27T02:46:52;102181.88;;;11.46;49.93
13050;BME280;6591;51.446;5.404;2023-01-27T02:49:19;102173.94;;;11.44;50.15
13050;BME280;6591;51.446;5.404;2023-01-27T02:51:46;102180.91;;;11.48;49.96
13050;BME280;6591;51.446;5.404;2023-01-27T02:54:13;102178.28;;;11.47;50.09
13050;BME280;6591;51.446;5.404;2023-01-27T02:56:40;102168.59;;;11.46;50.25
13050;BME280;6591;51.446;5.404;2023-01-27T02:59:10;102171.25;;;11.46;49.94
13050;BME280;6591;51.446;5.404;2023-01-27T03:01:40;102175.69;;;11.45;49.94
13050;BME280;6591;51.446;5.404;2023-01-27T03:04:08;102174.81;;;11.45;50.37
13050;BME280;6591;51.446;5.404;2023-01-27T03:06:38;102183.59;;;11.47;50.41
13050;BME280;6591;51.446;5.404;2023-01-27T03:09:05;102174.75;;;11.46;50.14
13050;BME280;6591;51.446;5.404;2023-01-27T03:11:32;102172.19;;;11.43;50.14
13050;BME280;6591;51.446;5.404;2023-01-27T03:14:18;102174.00;;;11.41;50.50
13050;BME280;6591;51.446;5.404;2023-01-27T03:16:46;102186.44;;;11.41;50.71
13050;BME280;6591;51.446;5.404;2023-01-27T03:19:32;102189.09;;;11.41;50.13
13050;BME280;6591;51.446;5.404;2023-01-27T03:21:59;102188.19;;;11.42;50.63
13050;BME280;6591;51.446;5.404;2023-01-27T03:24:31;102180.19;;;11.42;50.47
13050;BME280;6591;51.446;5.404;2023-01-27T03:27:03;102178.50;;;11.39;50.40
13050;BME280;6591;51.446;5.404;2023-01-27T03:29:52;102184.72;;;11.40;50.35
13050;BME280;6591;51.446;5.404;2023-01-27T03:32:28;102187.44;;;11.37;50.17
13050;BME280;6591;51.446;5.404;2023-01-27T03:35:16;102191.84;;;11.38;50.37
13050;BME280;6591;51.446;5.404;2023-01-27T03:37:46;102187.44;;;11.37;50.46
13050;BME280;6591;51.446;5.404;2023-01-27T03:40:32;102193.72;;;11.34;50.15
13050;BME280;6591;51.446;5.404;2023-01-27T03:43:19;102202.56;;;11.35;50.22
13050;BME280;6591;51.446;5.404;2023-01-27T03:46:05;102211.47;;;11.34;50.46
13050;BME280;6591;51.446;5.404;2023-01-27T03:48:55;102211.47;;;11.34;50.13
13050;BME280;6591;51.446;5.404;2023-01-27T03:51:24;102209.59;;;11.36;50.46
13050;BME280;6591;51.446;5.404;2023-01-27T03:53:52;102211.34;;;11.37;50.12
13050;BME280;6591;51.446;5.404;2023-01-27T03:56:21;102218.44;;;11.38;50.28
13050;BME280;6591;51.446;5.404;2023-01-27T03:58:49;102214.03;;;11.37;50.70
13050;BME280;6591;51.446;5.404;2023-01-27T04:01:22;102215.00;;;11.34;50.14
13050;BME280;6591;51.446;5.404;2023-01-27T04:03:51;102216.78;;;11.34;50.12
13050;BME280;6591;51.446;5.404;2023-01-27T04:06:41;102215.03;;;11.33;50.42
13050;BME280;6591;51.446;5.404;2023-01-27T04:09:33;102220.47;;;11.28;50.65
13050;BME280;6591;51.446;5.404;2023-01-27T04:12:05;102210.69;;;11.29;50.50
13050;BME280;6591;51.446;5.404;2023-01-27T04:14:36;102213.38;;;11.29;50.35
13050;BME280;6591;51.446;5.404;2023-01-27T04:17:18;102215.16;;;11.28;50.64
13050;BME280;6591;51.446;5.404;2023-01-27T04:19:46;102214.28;;;11.28;50.40
13050;BME280;6591;51.446;5.404;2023-01-27T04:22:14;102217.84;;;11.27;50.52
13050;BME280;6591;51.446;5.404;2023-01-27T04:24:42;102217.84;;;11.27;50.69
13050;BME280;6591;51.446;5.404;2023-01-27T04:27:14;102215.22;;;11.25;50.83
13050;BME280;6591;51.446;5.404;2023-01-27T04:29:46;102216.09;;;11.26;50.64
13050;BME280;6591;51.446;5.404;2023-01-27T04:32:13;102200.13;;;11.26;50.57
13050;BME280;6591;51.446;5.404;2023-01-27T04:34:41;102214.28;;;11.26;50.92
13050;BME280;6591;51.446;5.404;2023-01-27T04:37:09;102208.06;;;11.27;50.69
13050;BME280;6591;51.446;5.404;2023-01-27T04:39:37;102212.50;;;11.28;50.47
13050;BME280;6591;51.446;5.404;2023-01-27T04:42:03;102217.81;;;11.28;50.26
13050;BME280;6591;51.446;5.404;2023-01-27T04:44:31;102226.69;;;11.27;51.08
13050;BME280;6591;51.446;5.404;2023-01-27T04:46:59;102221.41;;;11.26;50.84
13050;BME280;6591;51.446;5.404;2023-01-27T04:49:26;102229.44;;;11.24;50.66
13050;BME280;6591;51.446;5.404;2023-01-27T04:51:54;102224.19;;;11.21;51.01
13050;BME280;6591;51.446;5.404;2023-01-27T04:54:21;102230.38;;;11.22;51.05
13050;BME280;6591;51.446;5.404;2023-01-27T04:56:58;102229.56;;;11.20;50.73
13050;BME280;6591;51.446;5.404;2023-01-27T04:59:26;102228.63;;;11.21;50.96
13050;BME280;6591;51.446;5.404;2023-01-27T05:01:53;102233.88;;;11.24;51.23
13050;BME280;6591;51.446;5.404;2023-01-27T05:04:21;102240.06;;;11.24;50.80
13050;BME280;6591;51.446;5.404;2023-01-27T05:06:49;102236.44;;;11.27;50.82
13050;BME280;6591;51.446;5.404;2023-01-27T05:09:16;102238.22;;;11.26;50.63
13050;BME280;6591;51.446;5.404;2023-01-27T05:11:43;102247.06;;;11.28;50.93
13050;BME280;6591;51.446;5.404;2023-01-27T05:14:11;102255.91;;;11.29;50.80
13050;BME280;6591;51.446;5.404;2023-01-27T05:16:39;102253.22;;;11.30;50.64
13050;BME280;6591;51.446;5.404;2023-01-27T05:19:08;102256.81;;;11.28;50.95
13050;BME280;6591;51.446;5.404;2023-01-27T05:21:36;102248.88;;;11.26;50.46
13050;BME280;6591;51.446;5.404;2023-01-27T05:24:04;102255.06;;;11.27;51.12
13050;BME280;6591;51.446;5.404;2023-01-27T05:26:32;102260.41;;;11.25;50.45
13050;BME280;6591;51.446;5.404;2023-01-27T05:29:02;102260.47;;;11.24;50.47
13050;BME280;6591;51.446;5.404;2023-01-27T05:31:30;102264.94;;;11.22;50.67
13050;BME280;6591;51.446;5.404;2023-01-27T05:34:00;102262.28;;;11.22;50.45
13050;BME280;6591;51.446;5.404;2023-01-27T05:36:28;102268.47;;;11.22;50.82
13050;BME280;6591;51.446;5.404;2023-01-27T05:38:57;102274.66;;;11.23;50.75
13050;BME280;6591;51.446;5.404;2023-01-27T05:41:28;102272.91;;;11.22;50.73
13050;BME280;6591;51.446;5.404;2023-01-27T05:43:57;102272.00;;;11.23;50.56
13050;BME280;6591;51.446;5.404;2023-01-27T05:46:28;102273.78;;;11.22;50.54
13050;BME280;6591;51.446;5.404;2023-01-27T05:49:00;102268.47;;;11.22;50.69
13050;BME280;6591;51.446;5.404;2023-01-27T05:51:36;102279.19;;;11.19;50.76
13050;BME280;6591;51.446;5.404;2023-01-27T05:54:06;102285.38;;;11.20;50.77
13050;BME280;6591;51.446;5.404;2023-01-27T05:56:33;102289.81;;;11.19;50.81
13050;BME280;6591;51.446;5.404;2023-01-27T05:59:00;102281.00;;;11.17;50.54
13050;BME280;6591;51.446;5.404;2023-01-27T06:01:31;102289.00;;;11.16;50.72
13050;BME280;6591;51.446;5.404;2023-01-27T06:04:00;102281.97;;;11.15;50.34
13050;BME280;6591;51.446;5.404;2023-01-27T06:06:30;102285.47;;;11.15;50.70
13050;BME280;6591;51.446;5.404;2023-01-27T06:08:58;102285.53;;;11.14;50.54
13050;BME280;6591;51.446;5.404;2023-01-27T06:11:25;102286.44;;;11.13;50.59
13050;BME280;6591;51.446;5.404;2023-01-27T06:13:53;102285.53;;;11.14;50.76
13050;BME280;6591;51.446;5.404;2023-01-27T06:16:21;102290.84;;;11.14;50.94
13050;BME280;6591;51.446;5.404;2023-01-27T06:18:50;102278.47;;;11.13;50.95
13050;BME280;6591;51.446;5.404;2023-01-27T06:21:18;102294.44;;;11.11;51.12
13050;BME280;6591;51.446;5.404;2023-01-27T06:23:46;102288.31;;;11.09;50.94
13050;BME280;6591;51.446;5.404;2023-01-27T06:26:17;102297.06;;;11.13;50.61
13050;BME280;6591;51.446;5.404;2023-01-27T06:28:46;102296.97;;;11.16;51.15
13050;BME280;6591;51.446;5.404;2023-01-27T06:31:18;102296.97;;;11.16;50.73
13050;BME280;6591;51.446;5.404;2023-01-27T06:33:46;102302.28;;;11.17;50.91
13050;BME280;6591;51.446;5.404;2023-01-27T06:36:17;102296.97;;;11.16;50.76
13050;BME280;6591;51.446;5.404;2023-01-27T06:38:48;102308.47;;;11.18;51.00
13050;BME280;6591;51.446;5.404;2023-01-27T06:41:16;102300.47;;;11.19;51.21
13050;BME280;6591;51.446;5.404;2023-01-27T06:43:44;102304.84;;;11.20;50.86
13050;BME280;6591;51.446;5.404;2023-01-27T06:46:11;102305.69;;;11.22;50.97
13050;BME280;6591;51.446;5.404;2023-01-27T06:48:38;102311.00;;;11.22;50.75
13050;BME280;6591;51.446;5.404;2023-01-27T06:51:07;102299.47;;;11.23;51.05
13050;BME280;6591;51.446;5.404;2023-01-27T06:53:34;102304.75;;;11.25;50.58
13050;BME280;6591;51.446;5.404;2023-01-27T06:56:03;102312.75;;;11.23;51.05
13050;BME280;6591;51.446;5.404;2023-01-27T06:58:31;102302.03;;;11.26;50.91
13050;BME280;6591;51.446;5.404;2023-01-27T07:00:58;102301.16;;;11.26;51.00
13050;BME280;6591;51.446;5.404;2023-01-27T07:03:26;102306.41;;;11.29;51.04
13050;BME280;6591;51.446;5.404;2023-01-27T07:05:55;102303.75;;;11.29;50.71
13050;BME280;6591;51.446;5.404;2023-01-27T07:08:22;102302.75;;;11.33;50.30
13050;BME280;6591;51.446;5.404;2023-01-27T07:10:49;102303.66;;;11.33;50.80
13050;BME280;6591;51.446;5.404;2023-01-27T07:13:18;102309.75;;;11.37;50.34
13050;BME280;6591;51.446;5.404;2023-01-27T07:15:55;102300.97;;;11.35;50.65
13050;BME280;6591;51.446;5.404;2023-01-27T07:18:22;102307.97;;;11.37;50.73
13050;BME280;6591;51.446;5.404;2023-01-27T07:20:50;102322.13;;;11.38;50.31
13050;BME280;6591;51.446;5.404;2023-01-27T07:23:19;102316.72;;;11.41;50.38
13050;BME280;6591;51.446;5.404;2023-01-27T07:25:46;102323.00;;;11.40;50.72
13050;BME280;6591;51.446;5.404;2023-01-27T07:28:14;102315.81;;;11.42;50.34
13050;BME280;6591;51.446;5.404;2023-01-27T07:30:41;102319.34;;;11.44;50.59
13050;BME280;6591;51.446;5.404;2023-01-27T07:33:13;102317.56;;;11.44;50.03
13050;BME280;6591;51.446;5.404;2023-01-27T07:35:43;102326.31;;;11.48;50.17
13050;BME280;6591;51.446;5.404;2023-01-27T07:38:10;102314.78;;;11.49;50.78
13050;BME280;6591;51.446;5.404;2023-01-27T07:40:37;102326.25;;;11.51;50.48
13050;BME280;6591;51.446;5.404;2023-01-27T07:43:04;102320.00;;;11.52;50.08
13050;BME280;6591;51.446;5.404;2023-01-27T07:45:33;102323.50;;;11.54;50.58
13050;BME280;6591;51.446;5.404;2023-01-27T07:48:03;102329.69;;;11.56;49.99
13050;BME280;6591;51.446;5.404;2023-01-27T07:50:31;102327.91;;;11.55;49.99
13050;BME280;6591;51.446;5.404;2023-01-27T07:53:03;102329.69;;;11.55;49.98
13050;BME280;6591;51.446;5.404;2023-01-27T07:55:32;102334.94;;;11.58;50.26
13050;BME280;6591;51.446;5.404;2023-01-27T07:57:59;102339.31;;;11.60;50.47
13050;BME280;6591;51.446;5.404;2023-01-27T08:00:27;102339.31;;;11.60;50.48
13050;BME280;6591;51.446;5.404;2023-01-27T08:02:56;102341.09;;;11.60;50.08
13050;BME280;6591;51.446;5.404;2023-01-27T08:05:25;102338.34;;;11.63;50.17
13050;BME280;6591;51.446;5.404;2023-01-27T08:07:54;102335.75;;;11.61;49.92
13050;BME280;6591;51.446;5.404;2023-01-27T08:10:25;102337.41;;;11.65;50.14
13050;BME280;6591;51.446;5.404;2023-01-27T08:12:53;102332.97;;;11.66;50.32
13050;BME280;6591;51.446;5.404;2023-01-27T08:15:22;102338.19;;;11.69;49.84
13050;BME280;6591;51.446;5.404;2023-01-27T08:17:57;102339.16;;;11.66;50.10
13050;BME280;6591;51.446;5.404;2023-01-27T08:20:26;102335.56;;;11.67;49.84
13050;BME280;6591;51.446;5.404;2023-01-27T08:22:54;102335.50;;;11.70;49.89
13050;BME280;6591;51.446;5.404;2023-01-27T08:25:21;102343.50;;;11.70;50.10
13050;BME280;6591;51.446;5.404;2023-01-27T08:27:53;102342.59;;;11.71;50.01
13050;BME280;6591;51.446;5.404;2023-01-27T08:30:22;102344.28;;;11.75;50.00
13050;BME280;6591;51.446;5.404;2023-01-27T08:32:50;102345.19;;;11.74;49.91
13050;BME280;6591;51.446;5.404;2023-01-27T08:35:21;102343.41;;;11.75;49.69
13050;BME280;6591;51.446;5.404;2023-01-27T08:37:50;102343.31;;;11.78;49.99
13050;BME280;6591;51.446;5.404;2023-01-27T08:40:22;102345.06;;;11.79;49.89
13050;BME280;6591;51.446;5.404;2023-01-27T08:42:49;102351.22;;;11.81;49.93
13050;BME280;6591;51.446;5.404;2023-01-27T08:45:16;102351.19;;;11.82;49.81
13050;BME280;6591;51.446;5.404;2023-01-27T08:47:45;102357.31;;;11.86;49.91
13050;BME280;6591;51.446;5.404;2023-01-27T08:50:12;102357.22;;;11.89;49.94
13050;BME280;6591;51.446;5.404;2023-01-27T08:52:40;102355.41;;;11.89;49.80
13050;BME280;6591;51.446;5.404;2023-01-27T08:55:08;102358.09;;;11.89;49.63
13050;BME280;6591;51.446;5.404;2023-01-27T08:57:36;102358.97;;;11.90;49.81
13050;BME280;6591;51.446;5.404;2023-01-27T09:00:05;102366.06;;;11.89;49.22
13050;BME280;6591;51.446;5.404;2023-01-27T09:02:34;102377.56;;;11.92;49.72
13050;BME280;6591;51.446;5.404;2023-01-27T09:05:04;102369.59;;;11.90;49.47
13050;BME280;6591;51.446;5.404;2023-01-27T09:07:31;102372.28;;;11.88;49.21
13050;BME280;6591;51.446;5.404;2023-01-27T09:09:59;102379.41;;;11.88;49.47
13050;BME280;6591;51.446;5.404;2023-01-27T09:12:43;102377.59;;;11.90;49.37
13050;BME280;6591;51.446;5.404;2023-01-27T09:15:14;102381.91;;;11.94;49.05
13050;BME280;6591;51.446;5.404;2023-01-27T09:17:41;102384.56;;;11.94;49.35
13050;BME280;6591;51.446;5.404;2023-01-27T09:20:12;102393.44;;;11.95;48.93
13050;BME280;6591;51.446;5.404;2023-01-27T09:22:40;102391.69;;;11.94;49.24
13050;BME280;6591;51.446;5.404;2023-01-27T09:25:15;102389.88;;;11.96;49.04
13050;BME280;6591;51.446;5.404;2023-01-27T09:27:44;102386.28;;;11.98;49.33
13050;BME280;6591;51.446;5.404;2023-01-27T09:30:14;102383.50;;;12.01;49.43
13050;BME280;6591;51.446;5.404;2023-01-27T09:32:42;102395.84;;;12.04;49.19
13050;BME280;6591;51.446;5.404;2023-01-27T09:35:11;102393.09;;;12.08;48.96
13050;BME280;6591;51.446;5.404;2023-01-27T09:37:57;102393.97;;;12.09;48.92
13050;BME280;6591;51.446;5.404;2023-01-27T09:40:36;102394.75;;;12.12;48.91
13050;BME280;6591;51.446;5.404;2023-01-27T09:43:18;102400.06;;;12.14;48.76
13050;BME280;6591;51.446;5.404;2023-01-27T09:51:40;102392.97;;;12.13;48.62
13050;BME280;6591;51.446;5.404;2023-01-27T09:57:50;102398.28;;;12.13;48.45
13050;BME280;6591;51.446;5.404;2023-01-27T10:04:20;102411.44;;;12.19;48.66
13050;BME280;6591;51.446;5.404;2023-01-27T10:12:36;102416.50;;;12.29;48.55
13050;BME280;6591;51.446;5.404;2023-01-27T10:15:39;102411.94;;;12.33;48.29
13050;BME280;6591;51.446;5.404;2023-01-27T10:21:36;102414.59;;;12.33;48.37
13050;BME280;6591;51.446;5.404;2023-01-27T10:27:21;102414.56;;;12.35;48.13
13050;BME280;6591;51.446;5.404;2023-01-27T10:30:15;102403.84;;;12.36;47.98
13050;BME280;6591;51.446;5.404;2023-01-27T10:33:07;102409.00;;;12.42;48.13
13050;BME280;6591;51.446;5.404;2023-01-27T10:54:12;102399.47;;;12.35;47.55
13050;BME280;6591;51.446;5.404;2023-01-27T10:56:57;102399.34;;;12.40;47.49
13050;BME280;6591;51.446;5.404;2023-01-27T11:03:40;102405.59;;;12.37;47.95
13050;BME280;6591;51.446;5.404;2023-01-27T11:06:21;102404.59;;;12.41;48.01
13050;BME280;6591;51.446;5.404;2023-01-27T11:08:55;102401.91;;;12.43;47.62
13050;BME280;6591;51.446;5.404;2023-01-27T11:11:26;102400.09;;;12.45;47.62
13050;BME280;6591;51.446;5.404;2023-01-27T11:14:52;102396.75;;;12.37;47.56
13050;BME280;6591;51.446;5.404;2023-01-27T11:17:36;102392.28;;;12.37;47.73
13050;BME280;6591;51.446;5.404;2023-01-27T11:20:41;102392.31;;;12.36;47.65
13050;BME280;6591;51.446;5.404;2023-01-27T11:23:18;102381.63;;;12.37;47.63
13050;BME280;6591;51.446;5.404;2023-01-27T11:35:05;102399.63;;;12.29;47.26
13050;BME280;6591;51.446;5.404;2023-01-27T11:37:38;102399.63;;;12.29;47.56
13050;BME280;6591;51.446;5.404;2023-01-27T11:40:18;102403.09;;;12.31;47.38
13050;BME280;6591;51.446;5.404;2023-01-27T11:42:48;102399.47;;;12.35;47.82
13050;BME280;6591;51.446;5.404;2023-01-27T11:45:20;102397.63;;;12.37;47.94
13050;BME280;6591;51.446;5.404;2023-01-27T11:47:56;102396.69;;;12.40;48.08
13050;BME280;6591;51.446;5.404;2023-01-27T11:50:32;102386.75;;;12.45;47.97
13050;BME280;6591;51.446;5.404;2023-01-27T11:53:29;102386.53;;;12.52;47.98
13050;BME280;6591;51.446;5.404;2023-01-27T11:56:13;102387.22;;;12.59;47.65
13050;BME280;6591;51.446;5.404;2023-01-27T11:59:04;102387.03;;;12.66;48.18
13050;BME280;6591;51.446;5.404;2023-01-27T12:05:26;102382.44;;;12.71;47.68
13050;BME280;6591;51.446;5.404;2023-01-27T12:08:00;102375.22;;;12.75;47.65
13050;BME280;6591;51.446;5.404;2023-01-27T12:10:40;102380.41;;;12.80;47.38
13050;BME280;6591;51.446;5.404;2023-01-27T12:13:25;102383.91;;;12.82;47.56
13050;BME280;6591;51.446;5.404;2023-01-27T12:15:59;102374.06;;;12.84;47.30
13050;BME280;6591;51.446;5.404;2023-01-27T12:18:33;102365.97;;;12.87;47.72
13050;BME280;6591;51.446;5.404;2023-01-27T12:21:05;102371.31;;;12.87;47.15
13050;BME280;6591;51.446;5.404;2023-01-27T12:23:49;102369.44;;;12.89;46.99
13050;BME280;6591;51.446;5.404;2023-01-27T12:26:50;102371.38;;;12.84;47.27
13050;BME280;6591;51.446;5.404;2023-01-27T12:29:27;102365.16;;;12.85;47.00
13050;BME280;6591;51.446;5.404;2023-01-27T12:31:59;102361.72;;;12.81;46.54
13050;BME280;6591;51.446;5.404;2023-01-27T12:34:36;102358.31;;;12.76;46.89
13050;BME280;6591;51.446;5.404;2023-01-27T12:37:06;102352.13;;;12.74;47.01
13050;BME280;6591;51.446;5.404;2023-01-27T12:42:36;102355.88;;;12.67;46.20
13050;BME280;6591;51.446;5.404;2023-01-27T12:45:33;102363.09;;;12.65;46.88
13050;BME280;6591;51.446;5.404;2023-01-27T12:53:24;102350.63;;;12.65;46.36
13050;BME280;6591;51.446;5.404;2023-01-27T12:56:13;102348.09;;;12.61;46.76
13050;BME280;6591;51.446;5.404;2023-01-27T13:01:36;102353.38;;;12.62;46.68
13050;BME280;6591;51.446;5.404;2023-01-27T13:04:20;102355.97;;;12.65;46.94
13050;BME280;6591;51.446;5.404;2023-01-27T13:07:07;102350.53;;;12.68;46.52
13050;BME280;6591;51.446;5.404;2023-01-27T13:09:52;102351.38;;;12.70;46.82
13050;BME280;6591;51.446;5.404;2023-01-27T13:12:26;102341.50;;;12.72;46.84
13050;BME280;6591;51.446;5.404;2023-01-27T13:15:23;102351.38;;;12.70;46.22
13050;BME280;6591;51.446;5.404;2023-01-27T13:17:56;102343.19;;;12.77;46.67
13050;BME280;6591;51.446;5.404;2023-01-27T13:20:52;102348.59;;;12.73;46.51
13050;BME280;6591;51.446;5.404;2023-01-27T13:23:27;102346.78;;;12.76;46.83
13050;BME280;6591;51.446;5.404;2023-01-27T13:26:09;102346.63;;;12.80;46.62
13050;BME280;6591;51.446;5.404;2023-01-27T13:28:53;102346.66;;;12.79;46.13
13050;BME280;6591;51.446;5.404;2023-01-27T13:34:42;102352.31;;;12.68;46.84
13050;BME280;6591;51.446;5.404;2023-01-27T13:37:23;102344.31;;;12.68;46.61
13050;BME280;6591;51.446;5.404;2023-01-27T13:43:12;102346.09;;;12.67;46.62
13050;BME280;6591;51.446;5.404;2023-01-27T13:45:57;102348.72;;;12.69;46.48
13050;BME280;6591;51.446;5.404;2023-01-27T13:48:47;102354.94;;;12.69;46.77
13050;BME280;6591;51.446;5.404;2023-01-27T13:51:24;102354.03;;;12.70;46.45
13050;BME280;6591;51.446;5.404;2023-01-27T13:54:03;102348.69;;;12.70;46.72
13050;BME280;6591;51.446;5.404;2023-01-27T14:00:10;102357.59;;;12.69;46.60
13050;BME280;6591;51.446;5.404;2023-01-27T14:03:13;102360.38;;;12.66;46.55
13050;BME280;6591;51.446;5.404;2023-01-27T14:09:08;102357.03;;;12.58;46.62
13050;BME280;6591;51.446;5.404;2023-01-27T14:17:45;102375.56;;;12.63;46.63
13050;BME280;6591;51.446;5.404;2023-01-27T14:23:39;102374.69;;;12.62;47.00
13050;BME280;6591;51.446;5.404;2023-01-27T14:26:48;102383.59;;;12.61;46.87
13050;BME280;6591;51.446;5.404;2023-01-27T14:30:02;102381.91;;;12.59;46.82
13050;BME280;6591;51.446;5.404;2023-01-27T14:32:44;102373.00;;;12.60;46.87
13050;BME280;6591;51.446;5.404;2023-01-27T14:35:53;102384.66;;;12.56;46.18
13050;BME280;6591;51.446;5.404;2023-01-27T14:38:32;102384.66;;;12.56;46.19
13050;BME280;6591;51.446;5.404;2023-01-27T14:41:38;102387.34;;;12.56;46.74
13050;BME280;6591;51.446;5.404;2023-01-27T14:44:24;102394.38;;;12.57;46.97
13050;BME280;6591;51.446;5.404;2023-01-27T14:47:19;102384.56;;;12.59;46.39
13050;BME280;6591;51.446;5.404;2023-01-27T14:55:56;102394.31;;;12.60;46.37
13050;BME280;6591;51.446;5.404;2023-01-27T14:58:53;102387.28;;;12.57;46.32
13050;BME280;6591;51.446;5.404;2023-01-27T15:05:01;102398.22;;;12.47;46.11
13050;BME280;6591;51.446;5.404;2023-01-27T15:10:26;102392.00;;;12.48;46.30
13050;BME280;6591;51.446;5.404;2023-01-27T15:16:50;102408.13;;;12.42;46.01
13050;BME280;6591;51.446;5.404;2023-01-27T15:19:41;102406.47;;;12.38;46.20
13050;BME280;6591;51.446;5.404;2023-01-27T15:25:49;102409.25;;;12.35;45.94
13050;BME280;6591;51.446;5.404;2023-01-27T15:28:24;102417.09;;;12.39;46.00
13050;BME280;6591;51.446;5.404;2023-01-27T15:31:28;102414.44;;;12.39;45.75
13050;BME280;6591;51.446;5.404;2023-01-27T15:34:23;102410.91;;;12.39;46.32
13050;BME280;6591;51.446;5.404;2023-01-27T15:40:15;102420.69;;;12.38;46.37
13050;BME280;6591;51.446;5.404;2023-01-27T15:42:49;102419.59;;;12.45;46.16
13050;BME280;6591;51.446;5.404;2023-01-27T15:48:04;102430.44;;;12.39;46.10